createdAt,value
2023-03-11T00:01:49.239Z,4.35
2023-03-11T00:05:52.713Z,4.28
2023-03-11T00:09:54.269Z,4.24
2023-03-11T00:13:55.935Z,4.13
2023-03-11T00:17:58.053Z,4.07
2023-03-11T00:21:59.637Z,3.98
2023-03-11T00:26:03.091Z,3.99
2023-03-11T00:30:06.239Z,3.93
2023-03-11T00:34:08.214Z,3.90
2023-03-11T00:38:15.295Z,3.86
2023-03-11T00:42:16.994Z,3.89
2023-03-11T00:46:18.640Z,3.86
2023-03-11T00:50:26.426Z,3.80
2023-03-11T00:54:28.669Z,3.77
2023-03-11T00:58:30.780Z,3.80
2023-03-11T01:02:32.510Z,3.75
2023-03-11T01:06:44.798Z,3.78
2023-03-11T01:10:47.010Z,3.74
2023-03-11T01:14:48.523Z,3.67
2023-03-11T01:18:50.158Z,3.68
2023-03-11T01:22:52.058Z,3.63
2023-03-11T01:26:53.658Z,3.54
2023-03-11T01:30:55.276Z,3.59
2023-03-11T01:34:56.858Z,3.54
2023-03-11T01:39:00.606Z,3.50
2023-03-11T01:43:04.867Z,3.41
2023-03-11T01:47:09.648Z,3.37
2023-03-11T01:51:11.354Z,3.39
2023-03-11T01:55:14.754Z,3.41
2023-03-11T01:59:21.204Z,3.34
2023-03-11T02:03:38.783Z,3.33
2023-03-11T02:07:41.040Z,3.31
2023-03-11T02:11:44.900Z,3.26
2023-03-11T02:15:47.231Z,3.20
2023-03-11T02:20:14.520Z,3.20
2023-03-11T02:24:23.272Z,3.19
2023-03-11T02:28:27.023Z,3.13
2023-03-11T02:32:29.592Z,3.12
2023-03-11T02:36:38.236Z,3.12
2023-03-11T02:40:50.156Z,3.17
2023-03-11T02:45:08.951Z,3.15
2023-03-11T02:49:11.430Z,3.12
2023-03-11T02:53:13.856Z,3.08
2023-03-11T02:57:16.676Z,3.10
2023-03-11T03:01:18.532Z,3.05
2023-03-11T03:05:21.848Z,3.04
2023-03-11T03:09:24.362Z,3.01
2023-03-11T03:13:27.279Z,2.95
2023-03-11T03:17:30.682Z,2.80
2023-03-11T03:21:32.366Z,2.77
2023-03-11T03:25:34.179Z,2.73
2023-03-11T03:29:39.602Z,2.68
2023-03-11T03:33:41.582Z,2.65
2023-03-11T03:37:43.141Z,2.61
2023-03-11T03:41:44.884Z,2.62
2023-03-11T03:45:57.631Z,2.58
2023-03-11T03:50:03.621Z,2.59
2023-03-11T03:54:05.467Z,2.55
2023-03-11T03:58:07.091Z,2.45
2023-03-11T04:02:10.615Z,2.43
2023-03-11T04:06:19.264Z,2.37
2023-03-11T04:10:23.737Z,2.36
2023-03-11T04:14:26.366Z,2.36
2023-03-11T04:18:33.344Z,2.29
2023-03-11T04:22:35.845Z,2.25
2023-03-11T04:26:37.723Z,2.25
2023-03-11T04:30:42.462Z,2.22
2023-03-11T04:34:44.611Z,2.27
2023-03-11T04:38:48.405Z,2.25
2023-03-11T04:42:50.608Z,2.25
2023-03-11T04:46:52.300Z,2.25
2023-03-11T04:50:55.435Z,2.27
2023-03-11T04:54:57.831Z,2.37
2023-03-11T04:59:00.034Z,2.33
2023-03-11T05:03:03.942Z,2.33
2023-03-11T05:07:06.397Z,2.30
2023-03-11T05:11:08.875Z,2.25
2023-03-11T05:15:11.096Z,2.20
2023-03-11T05:19:31.357Z,2.22
2023-03-11T05:23:35.488Z,2.14
2023-03-11T05:27:37.367Z,2.15
2023-03-11T05:31:40.548Z,2.18
2023-03-11T05:35:43.200Z,2.20
2023-03-11T05:39:45.231Z,2.22
2023-03-11T05:43:48.329Z,2.15
2023-03-11T05:47:52.398Z,2.12
2023-03-11T05:51:57.368Z,2.15
2023-03-11T05:56:01.758Z,2.19
2023-03-11T06:00:12.404Z,2.12
2023-03-11T06:04:21.533Z,2.18
2023-03-11T06:08:23.981Z,2.08
2023-03-11T06:12:25.707Z,2.01
2023-03-11T06:16:42.747Z,2.04
2023-03-11T06:20:45.076Z,2.12
2023-03-11T06:24:46.661Z,2.19
2023-03-11T06:28:49.803Z,2.25
2023-03-11T06:32:51.533Z,2.27
2023-03-11T06:36:54.788Z,2.27
2023-03-11T06:41:04.481Z,2.25
2023-03-11T06:45:07.790Z,2.30
2023-03-11T06:49:09.855Z,2.36
2023-03-11T06:53:13.040Z,2.29
2023-03-11T06:57:14.875Z,2.25
2023-03-11T07:01:21.833Z,2.29
2023-03-11T07:05:24.421Z,2.36
2023-03-11T07:09:31.420Z,2.38
2023-03-11T07:13:34.195Z,2.40
2023-03-11T07:17:36.410Z,2.40
2023-03-11T07:21:39.121Z,2.45
2023-03-11T07:25:46.768Z,2.51
2023-03-11T07:29:48.489Z,2.58
2023-03-11T07:33:50.189Z,2.63
2023-03-11T07:37:51.672Z,2.73
2023-03-11T07:41:53.310Z,2.79
2023-03-11T07:46:09.943Z,2.87
2023-03-11T07:50:11.935Z,2.95
2023-03-11T07:54:13.663Z,3.05
2023-03-11T07:58:15.411Z,3.16
2023-03-11T08:02:16.948Z,3.23
2023-03-11T08:06:21.483Z,3.30
2023-03-11T08:10:23.023Z,3.39
2023-03-11T08:14:24.645Z,3.50
2023-03-11T08:18:26.303Z,3.57
2023-03-11T08:22:27.861Z,3.67
2023-03-11T08:26:30.770Z,3.74
2023-03-11T08:30:32.516Z,3.80
2023-03-11T08:34:35.086Z,3.88
2023-03-11T08:38:36.994Z,3.96
2023-03-11T08:42:38.598Z,4.07
2023-03-11T08:46:40.409Z,4.18
2023-03-11T08:50:53.525Z,4.29
2023-03-11T08:54:56.511Z,4.42
2023-03-11T08:58:58.102Z,4.50
2023-03-11T09:02:59.734Z,4.59
2023-03-11T09:07:01.353Z,4.61
2023-03-11T09:11:02.903Z,4.62
2023-03-11T09:15:05.773Z,4.57
2023-03-11T09:19:07.566Z,4.75
2023-03-11T09:23:11.216Z,4.93
2023-03-11T09:27:13.612Z,5.05
2023-03-11T09:31:16.198Z,5.22
2023-03-11T09:35:17.938Z,5.27
2023-03-11T09:39:19.543Z,5.30
2023-03-11T09:43:36.323Z,5.40
2023-03-11T09:47:41.724Z,5.51
2023-03-11T09:51:50.023Z,5.66
2023-03-11T09:55:58.206Z,5.83
2023-03-11T10:00:04.218Z,5.63
2023-03-11T10:04:21.666Z,5.62
2023-03-11T10:08:30.971Z,5.80
2023-03-11T10:12:43.515Z,5.75
2023-03-11T10:16:52.950Z,5.84
2023-03-11T10:21:13.789Z,5.88
2023-03-11T10:25:24.296Z,6.03
2023-03-11T10:30:04.324Z,6.25
2023-03-11T10:34:23.835Z,6.42
2023-03-11T10:38:35.176Z,6.38
2023-03-11T10:42:37.984Z,6.46
2023-03-11T10:46:39.589Z,6.42
2023-03-11T10:50:57.084Z,6.51
2023-03-11T10:55:02.828Z,6.60
2023-03-11T10:59:19.144Z,6.64
2023-03-11T11:03:23.984Z,6.57
2023-03-11T11:07:28.413Z,6.57
2023-03-11T11:11:30.095Z,6.61
2023-03-11T11:15:37.418Z,6.75
2023-03-11T11:19:45.046Z,6.86
2023-03-11T11:24:00.821Z,6.76
2023-03-11T11:28:14.536Z,7.19
2023-03-11T11:32:19.196Z,7.08
2023-03-11T11:36:25.369Z,7.05
2023-03-11T11:40:35.844Z,7.04
2023-03-11T11:44:37.441Z,7.18
2023-03-11T11:48:49.418Z,7.19
2023-03-11T11:53:01.769Z,7.26
2023-03-11T11:57:12.531Z,7.62
2023-03-11T12:01:25.127Z,7.92
2023-03-11T12:05:33.569Z,7.60
2023-03-11T12:09:53.941Z,7.44
2023-03-11T12:14:36.886Z,7.55
2023-03-11T12:18:45.239Z,7.67
2023-03-11T12:23:11.233Z,7.76
2023-03-11T12:27:26.557Z,7.67
2023-03-11T12:31:34.213Z,7.82
2023-03-11T12:35:36.892Z,7.95
2023-03-11T12:39:38.438Z,7.92
2023-03-11T12:43:43.107Z,7.89
2023-03-11T12:47:44.772Z,7.81
2023-03-11T12:52:11.518Z,7.95
2023-03-11T12:56:36.410Z,8.28
2023-03-11T13:01:12.270Z,8.37
2023-03-11T13:05:57.330Z,8.34
2023-03-11T13:10:12.062Z,8.25
2023-03-11T13:14:14.845Z,8.28
2023-03-11T13:18:25.163Z,8.39
2023-03-11T13:23:13.767Z,8.49
2023-03-11T13:27:29.839Z,8.79
2023-03-11T13:31:43.393Z,9.16
2023-03-11T13:36:09.960Z,9.06
2023-03-11T13:40:22.822Z,8.94
2023-03-11T13:44:24.273Z,9.03
2023-03-11T13:48:34.306Z,9.23
2023-03-11T13:52:44.246Z,9.40
2023-03-11T13:56:53.907Z,9.49
2023-03-11T14:01:01.158Z,9.60
2023-03-11T14:05:07.059Z,9.45
2023-03-11T14:09:19.920Z,9.13
2023-03-11T14:13:21.864Z,9.00
2023-03-11T14:17:23.358Z,8.80
2023-03-11T14:21:25.024Z,8.65
2023-03-11T14:25:29.199Z,8.58
2023-03-11T14:29:34.595Z,8.71
2023-03-11T14:33:36.437Z,8.57
2023-03-11T14:37:38.745Z,8.67
2023-03-11T14:41:40.336Z,8.76
2023-03-11T14:45:43.088Z,8.83
2023-03-11T14:49:45.980Z,8.70
2023-03-11T14:54:08.050Z,8.54
2023-03-11T14:58:25.082Z,8.54
2023-03-11T15:02:55.648Z,8.50
2023-03-11T15:06:57.564Z,8.58
2023-03-11T15:11:18.062Z,8.47
2023-03-11T15:15:28.591Z,8.34
2023-03-11T15:19:34.378Z,8.29
2023-03-11T15:23:36.670Z,8.31
2023-03-11T15:27:39.320Z,8.34
2023-03-11T15:31:42.629Z,8.46
2023-03-11T15:35:48.876Z,8.34
2023-03-11T15:39:52.265Z,8.28
2023-03-11T15:43:54.827Z,8.29
2023-03-11T15:47:56.476Z,8.28
2023-03-11T15:52:02.019Z,8.22
2023-03-11T15:56:13.883Z,8.07
2023-03-11T16:00:19.291Z,8.07
2023-03-11T16:04:22.162Z,8.00
2023-03-11T16:08:23.816Z,8.03
2023-03-11T16:12:25.583Z,8.03
2023-03-11T16:16:27.218Z,7.94
2023-03-11T16:20:34.181Z,7.94
2023-03-11T16:24:35.871Z,8.07
2023-03-11T16:28:37.593Z,8.03
2023-03-11T16:32:39.122Z,7.96
2023-03-11T16:36:41.051Z,7.85
2023-03-11T16:40:42.662Z,7.63
2023-03-11T16:44:44.383Z,7.33
2023-03-11T16:48:46.129Z,7.08
2023-03-11T16:52:47.835Z,6.89
2023-03-11T16:56:49.502Z,6.72
2023-03-11T17:00:51.389Z,6.61
2023-03-11T17:04:53.129Z,6.54
2023-03-11T17:08:54.821Z,6.46
2023-03-11T17:12:56.467Z,6.40
2023-03-11T17:16:58.504Z,6.32
2023-03-11T17:21:02.066Z,6.28
2023-03-11T17:25:04.189Z,6.20
2023-03-11T17:29:05.944Z,6.14
2023-03-11T17:33:07.637Z,6.10
2023-03-11T17:37:09.312Z,6.10
2023-03-11T17:41:17.646Z,6.01
2023-03-11T17:45:19.127Z,5.99
2023-03-11T17:49:23.060Z,5.93
2023-03-11T17:53:26.083Z,5.88
2023-03-11T17:57:27.631Z,5.87
2023-03-11T18:01:29.773Z,5.85
2023-03-11T18:05:31.355Z,5.81
2023-03-11T18:09:32.851Z,5.77
2023-03-11T18:13:35.497Z,5.70
2023-03-11T18:17:37.121Z,5.67
2023-03-11T18:21:38.814Z,5.66
2023-03-11T18:25:40.433Z,5.59
2023-03-11T18:29:42.169Z,5.55
2023-03-11T18:34:13.229Z,5.52
2023-03-11T18:38:15.255Z,5.51
2023-03-11T18:42:16.828Z,5.48
2023-03-11T18:46:18.520Z,5.41
2023-03-11T18:50:20.601Z,5.38
2023-03-11T18:54:22.247Z,5.32
2023-03-11T18:58:23.802Z,5.29
2023-03-11T19:02:26.134Z,5.20
2023-03-11T19:06:28.979Z,5.20
2023-03-11T19:10:30.911Z,5.14
2023-03-11T19:14:33.043Z,5.12
2023-03-11T19:18:34.821Z,5.14
2023-03-11T19:22:37.485Z,5.11
2023-03-11T19:26:45.334Z,5.06
2023-03-11T19:30:55.741Z,5.02
2023-03-11T19:34:57.355Z,4.96
2023-03-11T19:38:58.932Z,4.87
2023-03-11T19:43:00.460Z,4.75
2023-03-11T19:47:02.151Z,4.71
2023-03-11T19:51:05.684Z,4.68
2023-03-11T19:55:07.692Z,4.59
2023-03-11T19:59:09.416Z,4.56
2023-03-11T20:03:12.523Z,4.47
2023-03-11T20:07:14.216Z,4.42
2023-03-11T20:11:16.394Z,4.34
2023-03-11T20:15:18.175Z,4.29
2023-03-11T20:19:19.779Z,4.25
2023-03-11T20:23:21.375Z,4.17
2023-03-11T20:27:22.902Z,4.11
2023-03-11T20:31:26.956Z,4.02
2023-03-11T20:35:28.625Z,3.93
2023-03-11T20:39:30.180Z,3.89
2023-03-11T20:43:33.002Z,3.89
2023-03-11T20:47:34.802Z,3.84
2023-03-11T20:51:39.036Z,3.78
2023-03-11T20:55:42.164Z,3.74
2023-03-11T20:59:43.815Z,3.70
2023-03-11T21:03:45.896Z,3.63
2023-03-11T21:07:49.188Z,3.54
2023-03-11T21:11:50.832Z,3.54
2023-03-11T21:15:55.718Z,3.53
2023-03-11T21:19:57.342Z,3.53
2023-03-11T21:23:58.971Z,3.52
2023-03-11T21:28:01.006Z,3.46
2023-03-11T21:32:03.603Z,3.42
2023-03-11T21:36:06.788Z,3.39
2023-03-11T21:40:09.559Z,3.37
2023-03-11T21:44:11.361Z,3.37
2023-03-11T21:48:14.215Z,3.35
2023-03-11T21:52:15.814Z,3.39
2023-03-11T21:56:17.949Z,3.35
2023-03-11T22:00:19.848Z,3.34
2023-03-11T22:04:21.734Z,3.31
2023-03-11T22:08:23.713Z,3.28
2023-03-11T22:12:25.602Z,3.28
2023-03-11T22:16:27.327Z,3.31
2023-03-11T22:20:29.246Z,3.31
2023-03-11T22:24:30.846Z,3.33
2023-03-11T22:28:32.409Z,3.30
2023-03-11T22:32:34.489Z,3.23
2023-03-11T22:36:36.289Z,3.08
2023-03-11T22:40:37.814Z,3.04
2023-03-11T22:44:39.467Z,2.99
2023-03-11T22:48:41.072Z,2.99
2023-03-11T22:52:42.585Z,2.99
2023-03-11T22:56:44.388Z,3.01
2023-03-11T23:00:45.993Z,2.98
2023-03-11T23:04:47.570Z,2.99
2023-03-11T23:08:49.218Z,2.95
2023-03-11T23:12:50.776Z,2.94
2023-03-11T23:16:52.314Z,2.90
2023-03-11T23:20:53.873Z,2.89
2023-03-11T23:24:55.439Z,2.86
2023-03-11T23:28:58.272Z,2.86
2023-03-11T23:33:02.435Z,2.84
2023-03-11T23:37:05.466Z,2.80
2023-03-11T23:41:16.090Z,2.77
2023-03-11T23:45:19.090Z,2.73
2023-03-11T23:49:20.602Z,2.71
2023-03-11T23:53:23.190Z,2.66
2023-03-11T23:57:24.852Z,2.65
